Time;durP1;ratioP1;P1;durP2;ratioP2;P2;SDS_P1;SDS_P2;PMS_P1;PMS_P2;Temp;Humidity;BMP_temperature;BMP_pressure;BME280_temperature;BME280_humidity;BME280_pressure;Samples;Min_cycle;Max_cycle;Signal;HPM_P1;HPM_P2
2021/07/31 00:02:06;;;;;;;;;;;;;;;16.22;49.25;99972.41;1616437;88;20116;-77
2021/07/31 00:04:32;;;;;;;;;;;;;;;16.21;49.30;99968.11;1619001;88;20465;-77
2021/07/31 00:06:58;;;;;;;;;;;;;;;16.21;49.43;99957.67;1614238;88;20205;-77
2021/07/31 00:09:24;;;;;;;;;;;;;;;16.18;49.45;99969.11;1613818;88;20184;-77
2021/07/31 00:11:50;;;;;;;;;;;;;;;16.12;49.42;99969.41;1596433;87;20131;-77
2021/07/31 00:14:18;;;;;;;;;;;;;;;16.11;49.53;99966.45;1596335;89;20135;-77
2021/07/31 00:16:44;;;;;;;;;;;;;;;16.11;49.58;99961.69;1593127;89;20095;-77
2021/07/31 00:19:10;;;;;;;;;;;;;;;16.10;49.60;99957.39;1602843;89;20137;-79
2021/07/31 00:21:36;;;;;;;;;;;;;;;16.08;49.70;99955.31;1586155;89;20143;-78
2021/07/31 00:24:02;;;;;;;;;;;;;;;16.05;49.77;99960.22;1598707;89;20201;-78
2021/07/31 00:26:28;;;;;;;;;;;;;;;16.04;49.91;99961.14;1596826;87;21055;-78
2021/07/31 00:29:01;;;;;;;;;;;;;;;16.04;50.04;99955.08;1590294;89;20515;-78
2021/07/31 00:31:27;;;;;;;;;;;;;;;16.02;50.03;99954.31;1591493;88;20461;-78
2021/07/31 00:33:53;;;;;;;;;;;;;;;16.02;50.08;99949.09;1595331;89;20155;-78
2021/07/31 00:36:19;;;;;;;;;;;;;;;16.02;50.09;99944.72;1598363;89;20215;-78
2021/07/31 00:38:45;;;;;;;;;;;;;;;16.01;50.18;99940.43;1597142;89;20161;-78
2021/07/31 00:41:11;;;;;;;;;;;;;;;16.01;50.30;99933.91;1605550;88;20417;-78
2021/07/31 00:43:37;;;;;;;;;;;;;;;16.02;50.34;99936.91;1589316;89;20205;-78
2021/07/31 00:46:03;;;;;;;;;;;;;;;15.96;50.36;99935.90;1590251;87;20114;-78
2021/07/31 00:48:30;;;;;;;;;;;;;;;15.92;50.49;99933.52;1598522;87;20104;-78
2021/07/31 00:50:56;;;;;;;;;;;;;;;15.92;50.58;99934.36;1589209;89;20382;-78
2021/07/31 00:53:22;;;;;;;;;;;;;;;15.93;50.64;99930.83;1597522;89;20204;-78
2021/07/31 00:55:48;;;;;;;;;;;;;;;15.94;50.66;99930.38;1591650;89;20127;-78
2021/07/31 00:58:17;;;;;;;;;;;;;;;15.94;50.74;99935.59;1595569;89;20106;-78
2021/07/31 01:00:43;;;;;;;;;;;;;;;15.95;50.81;99930.76;1594691;89;20123;-78
2021/07/31 01:03:09;;;;;;;;;;;;;;;15.94;50.89;99928.61;1594011;89;20763;-78
2021/07/31 01:05:36;;;;;;;;;;;;;;;15.95;50.92;99932.06;1590262;89;20113;-78
2021/07/31 01:08:02;;;;;;;;;;;;;;;15.96;50.96;99932.45;1594878;89;20571;-78
2021/07/31 01:10:29;;;;;;;;;;;;;;;15.96;51.06;99931.14;1595230;87;20133;-78
2021/07/31 01:12:55;;;;;;;;;;;;;;;15.95;51.03;99930.76;1609010;88;20131;-78
2021/07/31 01:15:21;;;;;;;;;;;;;;;15.95;51.09;99931.60;1603947;88;20658;-78
2021/07/31 01:17:47;;;;;;;;;;;;;;;15.95;51.12;99925.54;1612472;87;20138;-78
2021/07/31 01:20:16;;;;;;;;;;;;;;;15.95;51.17;99925.54;1608606;88;20143;-78
2021/07/31 01:22:41;;;;;;;;;;;;;;;15.92;51.17;99927.84;1609530;88;20588;-78
2021/07/31 01:25:08;;;;;;;;;;;;;;;15.93;51.24;99929.98;1602869;88;20737;-78
2021/07/31 01:27:34;;;;;;;;;;;;;;;15.91;51.29;99927.91;1617720;87;20308;-78
2021/07/31 01:30:00;;;;;;;;;;;;;;;15.91;51.39;99929.22;1602813;87;20143;-78
2021/07/31 01:32:26;;;;;;;;;;;;;;;15.89;51.42;99922.77;1610597;88;20107;-78
2021/07/31 01:34:52;;;;;;;;;;;;;;;15.89;51.46;99928.83;1612978;88;20211;-78
2021/07/31 01:37:18;;;;;;;;;;;;;;;15.89;51.50;99924.08;1618399;87;20135;-78
2021/07/31 01:39:47;;;;;;;;;;;;;;;15.88;51.54;99921.93;1617670;88;20287;-78
2021/07/31 01:42:13;;;;;;;;;;;;;;;15.87;51.64;99928.52;1609031;88;20133;-78
2021/07/31 01:44:39;;;;;;;;;;;;;;;15.86;51.67;99926.38;1611721;87;20115;-78
2021/07/31 01:47:09;;;;;;;;;;;;;;;15.87;51.72;99925.45;1622580;88;20136;-78
2021/07/31 01:49:35;;;;;;;;;;;;;;;15.86;51.81;99919.86;1616992;88;20104;-78
2021/07/31 01:52:01;;;;;;;;;;;;;;;15.88;51.80;99916.72;1618902;88;20162;-78
2021/07/31 01:54:45;;;;;;;;;;;;;;;15.87;51.88;99907.20;1605934;88;20427;-78
2021/07/31 01:57:11;;;;;;;;;;;;;;;15.89;51.94;99904.52;1614929;87;21083;-78
2021/07/31 01:59:38;;;;;;;;;;;;;;;15.90;52.00;99898.39;1605472;87;20139;-78
2021/07/31 02:02:07;;;;;;;;;;;;;;;15.92;52.15;99897.85;1609934;88;20116;-78
2021/07/31 02:04:34;;;;;;;;;;;;;;;15.94;52.12;99893.87;1615864;88;20305;-78
2021/07/31 02:07:01;;;;;;;;;;;;;;;15.96;52.24;99891.56;1621995;88;20118;-78
2021/07/31 02:09:28;;;;;;;;;;;;;;;15.99;52.25;99895.79;1609742;87;20094;-78
2021/07/31 02:11:53;;;;;;;;;;;;;;;16.00;52.30;99887.89;1609037;88;20424;-78
2021/07/31 02:14:20;;;;;;;;;;;;;;;16.04;52.35;99895.09;1623424;87;20172;-78
2021/07/31 02:16:46;;;;;;;;;;;;;;;16.04;52.36;99893.80;1619068;87;20235;-78
2021/07/31 02:19:12;;;;;;;;;;;;;;;16.04;52.44;99893.80;1598156;88;20158;-78
2021/07/31 02:21:45;;;;;;;;;;;;;;;16.04;52.45;99895.09;1613410;88;20183;-78
2021/07/31 02:24:11;;;;;;;;;;;;;;;16.06;52.49;99893.26;1612625;88;20287;-78
2021/07/31 02:26:37;;;;;;;;;;;;;;;16.06;52.54;99886.74;1601357;88;20185;-78
2021/07/31 02:29:06;;;;;;;;;;;;;;;16.08;52.58;99887.05;1612460;88;20519;-78
2021/07/31 02:31:32;;;;;;;;;;;;;;;16.06;52.62;99885.44;1612476;88;20208;-78
2021/07/31 02:33:58;;;;;;;;;;;;;;;16.07;52.70;99885.82;1606622;88;20282;-78
2021/07/31 02:36:24;;;;;;;;;;;;;;;16.05;52.75;99887.66;1603507;88;20267;-78
2021/07/31 02:38:50;;;;;;;;;;;;;;;16.04;52.78;99886.81;1611425;87;20210;-78
2021/07/31 02:41:17;;;;;;;;;;;;;;;16.03;52.83;99884.28;1610985;88;20510;-78
2021/07/31 02:43:43;;;;;;;;;;;;;;;16.02;52.94;99883.44;1602681;88;20120;-78
2021/07/31 02:46:10;;;;;;;;;;;;;;;16.01;52.91;99881.75;1613857;88;20142;-78
2021/07/31 02:48:37;;;;;;;;;;;;;;;16.00;52.97;99876.61;1609730;88;20566;-78
2021/07/31 02:51:07;;;;;;;;;;;;;;;16.02;53.05;99879.98;1611317;88;20110;-78
2021/07/31 02:53:33;;;;;;;;;;;;;;;16.02;53.06;99878.69;1617159;88;20094;-78
2021/07/31 02:56:00;;;;;;;;;;;;;;;16.01;53.10;99877.84;1609410;88;20246;-78
2021/07/31 02:58:26;;;;;;;;;;;;;;;16.00;53.20;99874.85;1617567;88;20127;-78
2021/07/31 03:00:52;;;;;;;;;;;;;;;16.01;53.24;99874.39;1610704;87;20406;-78
2021/07/31 03:03:18;;;;;;;;;;;;;;;16.00;53.28;99874.85;1621017;87;20112;-78
2021/07/31 03:05:48;;;;;;;;;;;;;;;16.01;53.26;99875.70;1608714;88;20100;-78
2021/07/31 03:08:14;;;;;;;;;;;;;;;16.01;53.33;99877.84;1612119;88;20100;-78
2021/07/31 03:10:40;;;;;;;;;;;;;;;16.01;53.41;99877.00;1604590;88;20201;-78
2021/07/31 03:13:06;;;;;;;;;;;;;;;16.02;53.45;99880.84;1594347;89;20191;-78
2021/07/31 03:15:33;;;;;;;;;;;;;;;16.03;53.52;99882.98;1594195;89;20173;-78
2021/07/31 03:17:58;;;;;;;;;;;;;;;16.03;53.57;99886.89;1595459;87;20503;-78
2021/07/31 03:20:27;;;;;;;;;;;;;;;16.01;53.58;99884.36;1588172;87;20140;-78
2021/07/31 03:22:53;;;;;;;;;;;;;;;16.01;53.69;99879.61;1600937;87;20242;-78
2021/07/31 03:25:19;;;;;;;;;;;;;;;16.03;53.70;99879.07;1600244;87;20209;-78
2021/07/31 03:28:00;;;;;;;;;;;;;;;16.04;53.79;99874.23;1593962;89;20424;-78
2021/07/31 03:30:26;;;;;;;;;;;;;;;16.06;53.81;99869.33;1595364;89;20204;-78
2021/07/31 03:32:53;;;;;;;;;;;;;;;16.09;53.82;99863.95;1593844;88;20227;-78
2021/07/31 03:35:19;;;;;;;;;;;;;;;16.13;53.88;99860.70;1599543;88;20112;-78
2021/07/31 03:37:47;;;;;;;;;;;;;;;16.15;54.03;99862.77;1574676;88;413368;-78
2021/07/31 03:40:13;;;;;;;;;;;;;;;16.18;54.01;99862.16;1588876;89;20805;-78
2021/07/31 03:42:39;;;;;;;;;;;;;;;16.23;54.07;99863.23;1592635;89;20172;-78
2021/07/31 03:45:13;;;;;;;;;;;;;;;16.28;54.08;99862.99;1597976;89;20438;-78
2021/07/31 03:47:39;;;;;;;;;;;;;;;16.33;54.19;99856.62;1586231;89;20245;-78
2021/07/31 03:50:07;;;;;;;;;;;;;;;16.38;54.17;99861.59;1598704;89;20792;-78
2021/07/31 03:52:33;;;;;;;;;;;;;;;16.44;54.20;99859.98;1598036;89;20421;-78
2021/07/31 03:54:59;;;;;;;;;;;;;;;16.50;54.26;99863.11;1594415;89;20173;-78
2021/07/31 03:57:25;;;;;;;;;;;;;;;16.58;54.33;99865.78;1593705;89;20840;-78
2021/07/31 03:59:52;;;;;;;;;;;;;;;16.62;54.34;99855.10;1585573;89;20537;-78
2021/07/31 04:02:18;;;;;;;;;;;;;;;16.65;54.36;99854.94;1597344;89;20268;-78
2021/07/31 04:04:44;;;;;;;;;;;;;;;16.73;54.40;99857.14;1594046;89;20212;-78
2021/07/31 04:07:15;;;;;;;;;;;;;;;16.79;54.41;99864.19;1595392;89;20527;-78
2021/07/31 04:09:41;;;;;;;;;;;;;;;16.84;54.48;99855.64;1589466;89;20809;-78
2021/07/31 04:12:07;;;;;;;;;;;;;;;16.90;54.51;99857.09;1584258;88;20626;-78
2021/07/31 04:14:34;;;;;;;;;;;;;;;16.96;54.54;99854.61;1579646;89;20553;-78
2021/07/31 04:17:03;;;;;;;;;;;;;;;17.00;54.58;99853.52;1585369;90;20439;-78
2021/07/31 04:19:29;;;;;;;;;;;;;;;17.05;54.59;99852.34;1576889;89;20532;-78
2021/07/31 04:21:56;;;;;;;;;;;;;;;17.11;54.63;99857.23;1583636;90;20443;-78
2021/07/31 04:24:23;;;;;;;;;;;;;;;17.17;54.66;99853.41;1583309;89;20330;-78
2021/07/31 04:26:49;;;;;;;;;;;;;;;17.21;54.66;99851.84;1588541;89;20550;-78
2021/07/31 04:29:15;;;;;;;;;;;;;;;17.27;54.70;99849.82;1580745;90;20444;-78
2021/07/31 04:31:41;;;;;;;;;;;;;;;17.30;54.80;99847.03;1588964;89;20699;-78
2021/07/31 04:34:08;;;;;;;;;;;;;;;17.33;54.82;99846.86;1590541;89;20416;-78
2021/07/31 04:36:34;;;;;;;;;;;;;;;17.36;54.88;99850.15;1588994;89;20104;-78
2021/07/31 04:39:01;;;;;;;;;;;;;;;17.42;54.92;99851.11;1591283;89;20112;-78
2021/07/31 04:41:27;;;;;;;;;;;;;;;17.49;54.99;99845.92;1590857;90;20464;-78
2021/07/31 04:43:53;;;;;;;;;;;;;;;17.57;54.98;99852.02;1588399;89;20147;-78
2021/07/31 04:46:19;;;;;;;;;;;;;;;17.65;55.04;99848.97;1584628;89;20208;-78
2021/07/31 04:48:45;;;;;;;;;;;;;;;17.74;55.00;99851.06;1586043;89;20467;-78
2021/07/31 04:51:11;;;;;;;;;;;;;;;17.84;55.09;99853.52;1584683;89;20153;-78
2021/07/31 04:53:37;;;;;;;;;;;;;;;17.97;55.15;99854.96;1589359;89;20464;-78
2021/07/31 04:56:06;;;;;;;;;;;;;;;18.11;55.16;99858.45;1586862;89;20436;-78
2021/07/31 04:58:32;;;;;;;;;;;;;;;18.24;55.25;99853.30;1583989;89;20233;-78
2021/07/31 05:00:59;;;;;;;;;;;;;;;18.38;55.25;99850.70;1585258;89;20148;-78
2021/07/31 05:03:27;;;;;;;;;;;;;;;18.52;55.39;99853.33;1565670;90;39431;-78
2021/07/31 05:05:53;;;;;;;;;;;;;;;18.72;55.36;99849.96;1587102;89;20534;-78
2021/07/31 05:08:21;;;;;;;;;;;;;;;18.88;55.34;99850.70;1588849;89;20452;-78
2021/07/31 05:10:49;;;;;;;;;;;;;;;19.04;55.26;99844.03;1584390;88;20122;-78
2021/07/31 05:13:15;;;;;;;;;;;;;;;19.21;55.34;99849.52;1607840;88;20453;-78
2021/07/31 05:15:42;;;;;;;;;;;;;;;19.42;55.43;99846.80;1603455;88;20461;-78
2021/07/31 05:18:09;;;;;;;;;;;;;;;19.74;55.39;99844.27;1600733;88;20118;-78
2021/07/31 05:20:40;;;;;;;;;;;;;;;20.21;55.55;99833.66;1602063;89;20114;-79
2021/07/31 05:23:06;;;;;;;;;;;;;;;20.80;55.56;99836.05;1603358;89;20134;-79
2021/07/31 05:25:32;;;;;;;;;;;;;;;21.45;55.39;99833.11;1593197;88;20141;-79
2021/07/31 05:27:58;;;;;;;;;;;;;;;22.09;55.39;99832.25;1601790;88;20455;-79
2021/07/31 05:30:24;;;;;;;;;;;;;;;22.78;54.92;99838.74;1602511;88;20422;-79
2021/07/31 05:32:50;;;;;;;;;;;;;;;23.11;54.31;99841.34;1597793;88;20197;-79
2021/07/31 05:35:16;;;;;;;;;;;;;;;23.15;53.87;99838.45;1602114;89;20165;-79
2021/07/31 05:37:42;;;;;;;;;;;;;;;23.10;53.83;99842.78;1597583;89;20770;-79
2021/07/31 05:40:11;;;;;;;;;;;;;;;22.98;53.67;99841.13;1600284;89;20490;-79
2021/07/31 05:42:37;;;;;;;;;;;;;;;22.91;53.72;99839.45;1599468;89;20190;-79
2021/07/31 05:45:04;;;;;;;;;;;;;;;22.86;53.68;99840.80;1590551;88;20236;-79
2021/07/31 05:47:33;;;;;;;;;;;;;;;22.82;53.75;99853.39;1604222;89;20138;-79
2021/07/31 05:50:00;;;;;;;;;;;;;;;22.81;53.77;99844.28;1603819;88;20188;-79
2021/07/31 05:52:28;;;;;;;;;;;;;;;22.81;53.76;99841.17;1604301;88;20103;-79
2021/07/31 05:54:55;;;;;;;;;;;;;;;22.77;53.68;99839.22;1599520;88;20118;-79
2021/07/31 05:57:21;;;;;;;;;;;;;;;22.74;53.83;99838.63;1594310;88;20146;-79
2021/07/31 05:59:48;;;;;;;;;;;;;;;22.75;53.81;99841.14;1603793;88;20185;-79
2021/07/31 06:02:14;;;;;;;;;;;;;;;22.79;53.86;99847.05;1601601;88;20471;-79
2021/07/31 06:04:40;;;;;;;;;;;;;;;22.81;53.77;99845.60;1601798;89;20459;-78
2021/07/31 06:07:07;;;;;;;;;;;;;;;22.92;53.67;99844.24;1603281;89;20139;-79
2021/07/31 06:09:36;;;;;;;;;;;;;;;22.93;53.60;99844.60;1602844;88;20186;-79
2021/07/31 06:12:03;;;;;;;;;;;;;;;22.86;53.42;99838.17;1598592;88;20280;-78
2021/07/31 06:14:36;;;;;;;;;;;;;;;22.90;53.60;99840.41;1606048;89;20141;-78
2021/07/31 06:17:02;;;;;;;;;;;;;;;23.13;53.56;99831.98;1605746;88;20137;-78
2021/07/31 06:19:28;;;;;;;;;;;;;;;23.27;53.66;99835.67;1606275;88;20133;-78
2021/07/31 06:21:54;;;;;;;;;;;;;;;23.44;53.57;99839.06;1605560;88;20162;-78
2021/07/31 06:24:20;;;;;;;;;;;;;;;23.82;53.61;99835.59;1601096;89;20114;-78
2021/07/31 06:26:46;;;;;;;;;;;;;;;24.16;53.50;99829.11;1604286;89;20122;-78
2021/07/31 06:29:16;;;;;;;;;;;;;;;24.62;53.27;99835.75;1606169;89;20145;-78
2021/07/31 06:31:42;;;;;;;;;;;;;;;25.12;53.21;99833.96;1606516;88;20162;-78
2021/07/31 06:34:09;;;;;;;;;;;;;;;25.60;52.87;99837.95;1605103;88;20158;-78
2021/07/31 06:36:36;;;;;;;;;;;;;;;26.08;52.70;99834.43;1604449;88;20153;-78
2021/07/31 06:39:04;;;;;;;;;;;;;;;26.56;52.47;99842.74;1601769;88;20496;-79
2021/07/31 06:41:30;;;;;;;;;;;;;;;27.04;52.28;99841.19;1601937;89;20146;-79
2021/07/31 06:43:57;;;;;;;;;;;;;;;27.48;52.13;99834.19;1587320;89;20137;-79
2021/07/31 06:46:24;;;;;;;;;;;;;;;27.99;52.04;99835.28;1584799;88;20141;-79
2021/07/31 06:48:52;;;;;;;;;;;;;;;28.57;51.72;99838.64;1605371;89;20121;-79
2021/07/31 06:51:19;;;;;;;;;;;;;;;28.98;51.41;99839.16;1600228;89;20165;-79
2021/07/31 06:53:49;;;;;;;;;;;;;;;29.46;51.35;99843.42;1586409;88;20114;-79
2021/07/31 06:56:15;;;;;;;;;;;;;;;29.80;50.98;99844.59;1606116;89;20138;-79
2021/07/31 06:58:41;;;;;;;;;;;;;;;29.85;50.62;99844.92;1606206;89;20134;-79
2021/07/31 07:01:11;;;;;;;;;;;;;;;29.94;50.64;99847.92;1601455;88;20161;-79
2021/07/31 07:03:38;;;;;;;;;;;;;;;30.18;50.55;99850.56;1600901;89;20168;-79
2021/07/31 07:06:05;;;;;;;;;;;;;;;30.40;50.21;99849.52;1606227;89;20121;-79
2021/07/31 07:08:32;;;;;;;;;;;;;;;30.63;50.11;99846.98;1596215;88;20133;-79
2021/07/31 07:11:00;;;;;;;;;;;;;;;30.86;49.79;99846.53;1603431;88;21094;-79
2021/07/31 07:13:26;;;;;;;;;;;;;;;31.08;49.86;99847.09;1599599;88;20478;-79
2021/07/31 07:15:52;;;;;;;;;;;;;;;31.21;49.63;99851.87;1602898;88;20149;-79
2021/07/31 07:18:19;;;;;;;;;;;;;;;31.54;49.46;99856.00;1605356;88;20167;-79
2021/07/31 07:20:45;;;;;;;;;;;;;;;31.76;49.05;99853.50;1606019;88;20171;-79
2021/07/31 07:23:11;;;;;;;;;;;;;;;31.89;49.59;99856.39;1606118;88;20146;-79
2021/07/31 07:25:41;;;;;;;;;;;;;;;31.75;48.51;99859.35;1605770;88;20142;-79
2021/07/31 07:28:05;;;;;;;;;;;;;;;31.60;48.42;99863.81;1605239;88;20114;-79
2021/07/31 07:30:31;;;;;;;;;;;;;;;31.58;48.15;99870.67;1602817;88;20157;-77
2021/07/31 07:33:02;;;;;;;;;;;;;;;31.64;48.10;99870.46;1602907;88;20123;-80
2021/07/31 07:35:29;;;;;;;;;;;;;;;31.59;47.71;99866.98;1595058;88;20148;-80
2021/07/31 07:37:55;;;;;;;;;;;;;;;31.55;47.44;99868.85;1613777;88;20128;-80
2021/07/31 07:40:21;;;;;;;;;;;;;;;31.63;47.16;99871.98;1606463;87;20114;-79
2021/07/31 07:42:47;;;;;;;;;;;;;;;31.47;46.82;99873.75;1605402;88;20172;-79
2021/07/31 07:45:13;;;;;;;;;;;;;;;31.42;46.78;99861.92;1605433;88;20245;-79
2021/07/31 07:47:39;;;;;;;;;;;;;;;31.53;46.67;99859.67;1603945;88;20130;-79
2021/07/31 07:50:07;;;;;;;;;;;;;;;31.68;46.65;99858.94;1605347;88;20204;-80
2021/07/31 07:52:33;;;;;;;;;;;;;;;31.73;46.28;99858.70;1594128;88;20149;-79
2021/07/31 07:54:59;;;;;;;;;;;;;;;31.94;46.06;99855.35;1605440;88;20162;-79
2021/07/31 07:57:31;;;;;;;;;;;;;;;32.11;45.31;99850.69;1605320;89;20163;-79
2021/07/31 07:59:57;;;;;;;;;;;;;;;32.13;45.37;99854.01;1599145;88;20138;-79
2021/07/31 08:02:23;;;;;;;;;;;;;;;32.27;45.19;99858.55;1597300;89;20193;-80
2021/07/31 08:04:49;;;;;;;;;;;;;;;32.39;44.88;99846.38;1605125;88;20138;-80
2021/07/31 08:07:15;;;;;;;;;;;;;;;32.34;44.83;99853.30;1603756;88;20194;-80
2021/07/31 08:09:42;;;;;;;;;;;;;;;32.18;44.63;99855.63;1604851;88;20122;-79
2021/07/31 08:12:09;;;;;;;;;;;;;;;32.14;44.23;99859.69;1599616;88;20145;-80
2021/07/31 08:14:36;;;;;;;;;;;;;;;31.83;43.94;99859.28;1583501;88;20113;-80
2021/07/31 08:17:02;;;;;;;;;;;;;;;31.64;43.82;99861.11;1578515;89;20153;-80
2021/07/31 08:19:28;;;;;;;;;;;;;;;31.37;43.84;99862.45;1579354;89;20129;-81
2021/07/31 08:21:54;;;;;;;;;;;;;;;31.23;43.78;99869.89;1575525;89;20489;-77
2021/07/31 08:24:21;;;;;;;;;;;;;;;31.27;43.56;99868.53;1575700;88;21862;-78
2021/07/31 08:26:47;;;;;;;;;;;;;;;31.22;43.54;99869.05;1570516;89;20406;-78
2021/07/31 08:29:13;;;;;;;;;;;;;;;31.27;43.19;99859.17;1584617;89;20109;-77
2021/07/31 08:31:41;;;;;;;;;;;;;;;31.22;43.20;99863.71;1586182;88;20118;-78
2021/07/31 08:34:09;;;;;;;;;;;;;;;31.22;42.56;99858.88;1575629;89;20194;-78
2021/07/31 08:36:36;;;;;;;;;;;;;;;31.28;42.77;99862.17;1585787;89;20227;-77
2021/07/31 08:39:03;;;;;;;;;;;;;;;31.14;42.25;99871.80;1574968;89;20171;-77
2021/07/31 08:41:29;;;;;;;;;;;;;;;30.77;42.12;99868.42;1575511;89;20218;-77
2021/07/31 08:43:55;;;;;;;;;;;;;;;30.63;42.12;99872.34;1584935;88;20201;-77
2021/07/31 08:46:22;;;;;;;;;;;;;;;30.72;42.12;99868.11;1575966;89;20200;-77
2021/07/31 08:48:48;;;;;;;;;;;;;;;30.73;41.67;99871.11;1569181;89;20224;-76
2021/07/31 08:51:16;;;;;;;;;;;;;;;30.66;41.69;99874.67;1581134;89;20196;-76
2021/07/31 08:53:42;;;;;;;;;;;;;;;30.68;41.50;99874.80;1571116;89;20188;-76
2021/07/31 08:56:09;;;;;;;;;;;;;;;30.50;41.38;99872.34;1591878;89;20166;-76
2021/07/31 08:58:40;;;;;;;;;;;;;;;30.48;41.50;99874.85;1579754;89;20366;-76
2021/07/31 09:01:07;;;;;;;;;;;;;;;30.91;41.16;99875.71;1576283;89;20151;-76
2021/07/31 09:03:51;;;;;;;;;;;;;;;31.44;40.82;99874.61;1575512;89;20125;-76
2021/07/31 09:06:27;;;;;;;;;;;;;;;32.07;40.86;99886.83;1580647;89;20207;-77
2021/07/31 09:08:54;;;;;;;;;;;;;;;32.75;41.07;99875.95;1586153;88;20225;-77
2021/07/31 09:11:20;;;;;;;;;;;;;;;33.14;40.60;99878.79;1589603;89;20198;-77
2021/07/31 09:13:46;;;;;;;;;;;;;;;33.24;40.54;99882.00;1587286;88;20194;-77
2021/07/31 09:16:12;;;;;;;;;;;;;;;33.37;40.34;99880.81;1603645;88;20184;-77
2021/07/31 09:18:44;;;;;;;;;;;;;;;33.36;40.47;99887.19;1603691;88;20481;-77
2021/07/31 09:21:15;;;;;;;;;;;;;;;33.16;40.19;99875.41;1600265;88;21154;-77
2021/07/31 09:23:50;;;;;;;;;;;;;;;32.82;39.61;99886.73;1594088;88;20201;-79
2021/07/31 09:26:22;;;;;;;;;;;;;;;32.38;39.47;99888.88;1594103;89;20217;-79
2021/07/31 09:29:06;;;;;;;;;;;;;;;31.73;39.22;99883.27;1601437;88;20245;-79
2021/07/31 09:31:33;;;;;;;;;;;;;;;31.14;38.99;99882.48;1603527;88;20225;-80
2021/07/31 09:34:02;;;;;;;;;;;;;;;30.59;38.83;99869.19;1602712;88;20218;-80
2021/07/31 09:36:40;;;;;;;;;;;;;;;30.15;38.37;99879.44;1603339;88;20211;-79
2021/07/31 09:39:08;;;;;;;;;;;;;;;29.80;38.22;99878.73;1604185;89;20146;-79
2021/07/31 09:41:36;;;;;;;;;;;;;;;29.43;37.94;99876.55;1602609;89;20233;-80
2021/07/31 09:44:13;;;;;;;;;;;;;;;29.15;37.89;99879.11;1600535;89;20229;-79
2021/07/31 09:46:48;;;;;;;;;;;;;;;28.90;37.67;99885.70;1602544;89;20123;-77
2021/07/31 09:49:18;;;;;;;;;;;;;;;28.71;37.49;99882.41;1605352;88;20130;-77
2021/07/31 09:51:47;;;;;;;;;;;;;;;28.54;37.38;99872.20;1612332;88;20136;-77
2021/07/31 09:54:15;;;;;;;;;;;;;;;28.44;37.38;99882.13;1602205;88;20150;-77
2021/07/31 09:56:44;;;;;;;;;;;;;;;28.40;37.39;99873.63;1603571;89;20198;-79
2021/07/31 09:59:13;;;;;;;;;;;;;;;28.30;37.33;99880.38;1603789;89;20189;-77
2021/07/31 10:02:07;;;;;;;;;;;;;;;28.22;37.11;99871.01;1603738;88;20213;-77
2021/07/31 10:04:32;;;;;;;;;;;;;;;27.98;37.09;99891.59;1596112;89;20096;-77
2021/07/31 10:07:02;;;;;;;;;;;;;;;27.80;37.21;99885.95;1602761;89;20134;-77
2021/07/31 10:09:28;;;;;;;;;;;;;;;27.73;37.16;99878.25;1603632;89;20102;-79
2021/07/31 10:11:56;;;;;;;;;;;;;;;27.73;37.15;99873.77;1605268;88;20144;-78
2021/07/31 10:14:23;;;;;;;;;;;;;;;27.76;37.13;99880.11;1604433;88;20102;-78
2021/07/31 10:16:49;;;;;;;;;;;;;;;27.83;37.18;99877.18;1604527;88;20167;-78
2021/07/31 10:19:15;;;;;;;;;;;;;;;27.86;36.97;99890.16;1600274;88;20140;-78
2021/07/31 10:21:52;;;;;;;;;;;;;;;27.87;36.92;99890.50;1603950;89;20146;-78
2021/07/31 10:24:19;;;;;;;;;;;;;;;27.85;36.98;99875.70;1599571;88;20167;-78
2021/07/31 10:27:17;;;;;;;;;;;;;;;27.89;36.97;99881.05;1596330;89;20142;-78
2021/07/31 10:29:50;;;;;;;;;;;;;;;27.86;36.90;99880.02;1597720;89;20131;-78
2021/07/31 10:32:32;;;;;;;;;;;;;;;27.88;36.86;99874.89;1600512;88;20427;-78
2021/07/31 10:35:00;;;;;;;;;;;;;;;27.97;36.83;99867.83;1603488;88;20155;-78
2021/07/31 10:37:32;;;;;;;;;;;;;;;28.07;36.77;99871.23;1604980;89;20170;-78
2021/07/31 10:40:06;;;;;;;;;;;;;;;28.11;36.66;99877.04;1605382;88;20151;-78
2021/07/31 10:42:54;;;;;;;;;;;;;;;28.09;36.78;99871.87;1604850;88;20194;-78
2021/07/31 10:45:23;;;;;;;;;;;;;;;28.07;36.61;99880.53;1603904;88;20158;-78
2021/07/31 10:47:57;;;;;;;;;;;;;;;27.99;36.47;99891.09;1605054;88;20167;-78
2021/07/31 10:50:27;;;;;;;;;;;;;;;27.90;36.46;99884.05;1581915;89;20445;-78
2021/07/31 10:53:04;;;;;;;;;;;;;;;27.80;36.54;99884.13;1604765;88;20154;-78
2021/07/31 10:55:39;;;;;;;;;;;;;;;27.77;36.58;99887.58;1596401;89;20161;-78
2021/07/31 10:58:20;;;;;;;;;;;;;;;27.80;36.60;99879.30;1603748;89;20218;-78
2021/07/31 11:00:49;;;;;;;;;;;;;;;27.87;36.56;99884.35;1609041;88;20185;-78
2021/07/31 11:03:28;;;;;;;;;;;;;;;27.94;36.64;99880.92;1600848;88;20193;-78
2021/07/31 11:05:54;;;;;;;;;;;;;;;28.01;36.41;99881.98;1600348;89;20170;-78
2021/07/31 11:08:22;;;;;;;;;;;;;;;27.95;36.30;99885.75;1607754;89;20221;-78
2021/07/31 11:10:49;;;;;;;;;;;;;;;27.93;36.37;99881.91;1599915;88;20165;-78
2021/07/31 11:13:22;;;;;;;;;;;;;;;27.89;36.30;99893.00;1639556;86;20142;-82
2021/07/31 11:16:04;;;;;;;;;;;;;;;27.88;36.21;99886.02;1658764;86;20186;-82
2021/07/31 11:18:40;;;;;;;;;;;;;;;27.88;36.12;99884.20;1657771;86;20222;-82
2021/07/31 11:21:21;;;;;;;;;;;;;;;27.87;36.17;99889.66;1657024;86;20197;-82
2021/07/31 11:24:05;;;;;;;;;;;;;;;27.83;36.25;99888.30;1660392;86;20218;-82
2021/07/31 11:26:40;;;;;;;;;;;;;;;27.88;36.23;99890.01;1663050;86;20136;-82
2021/07/31 11:29:21;;;;;;;;;;;;;;;27.88;36.08;99886.86;1649451;85;20185;-82
2021/07/31 11:32:18;;;;;;;;;;;;;;;27.82;36.00;99879.98;1663108;86;20217;-82
2021/07/31 11:34:46;;;;;;;;;;;;;;;27.82;36.14;99890.12;1657311;86;20234;-82
2021/07/31 11:37:16;;;;;;;;;;;;;;;27.93;36.07;99895.70;1660279;86;20205;-81
2021/07/31 11:39:44;;;;;;;;;;;;;;;28.02;35.94;99888.13;1661793;85;20197;-81
2021/07/31 11:42:19;;;;;;;;;;;;;;;28.01;35.73;99888.63;1661602;85;20238;-81
2021/07/31 11:44:45;;;;;;;;;;;;;;;28.01;35.87;99883.80;1662232;85;20210;-81
2021/07/31 11:47:11;;;;;;;;;;;;;;;28.05;35.85;99880.34;1661759;85;20831;-81
2021/07/31 11:49:38;;;;;;;;;;;;;;;28.06;35.62;99893.48;1659038;86;20193;-81
2021/07/31 11:52:06;;;;;;;;;;;;;;;28.01;35.60;99900.59;1662330;85;20258;-81
2021/07/31 11:54:34;;;;;;;;;;;;;;;27.89;35.64;99893.00;1662281;85;20170;-81
2021/07/31 11:57:04;;;;;;;;;;;;;;;27.80;35.72;99904.55;1663150;86;20433;-81
2021/07/31 11:59:34;;;;;;;;;;;;;;;27.76;35.63;99895.21;1663513;85;20113;-81
2021/07/31 12:02:01;;;;;;;;;;;;;;;27.73;35.64;99888.38;1663661;85;20134;-81
2021/07/31 12:04:50;;;;;;;;;;;;;;;27.81;35.70;99905.72;1654511;86;20130;-81
2021/07/31 12:07:17;;;;;;;;;;;;;;;27.85;35.62;99903.11;1663595;85;20097;-81
2021/07/31 12:10:02;;;;;;;;;;;;;;;27.84;35.53;99882.84;1661387;85;20115;-81
2021/07/31 12:12:32;;;;;;;;;;;;;;;27.91;35.48;99897.67;1658757;86;20457;-81
2021/07/31 12:15:19;;;;;;;;;;;;;;;27.94;35.25;99903.52;1656642;85;20139;-81
2021/07/31 12:17:59;;;;;;;;;;;;;;;27.90;35.29;99899.50;1626472;87;20117;-81
2021/07/31 12:20:42;;;;;;;;;;;;;;;27.85;35.23;99896.46;1636474;87;20126;-81
2021/07/31 12:23:12;;;;;;;;;;;;;;;27.81;35.11;99896.92;1637197;87;20176;-81
2021/07/31 12:26:00;;;;;;;;;;;;;;;27.81;35.26;99894.26;1637380;87;20609;-81
2021/07/31 12:28:39;;;;;;;;;;;;;;;27.79;35.07;99898.89;1638539;86;20157;-81
2021/07/31 12:31:27;;;;;;;;;;;;;;;27.76;35.13;99896.54;1637525;87;20217;-81
2021/07/31 12:33:54;;;;;;;;;;;;;;;27.84;35.07;99890.80;1634922;87;20164;-81
2021/07/31 12:36:22;;;;;;;;;;;;;;;27.93;35.19;99905.00;1636959;86;20169;-81
2021/07/31 12:38:48;;;;;;;;;;;;;;;27.95;34.72;99895.05;1637635;86;20237;-81
2021/07/31 12:41:14;;;;;;;;;;;;;;;27.80;34.64;99897.91;1637915;87;20249;-78
2021/07/31 12:43:44;;;;;;;;;;;;;;;27.74;34.79;99886.06;1637608;87;20236;-80
2021/07/31 12:46:10;;;;;;;;;;;;;;;27.80;34.76;99888.60;1637566;87;20157;-81
2021/07/31 12:48:36;;;;;;;;;;;;;;;27.79;34.70;99890.92;1638766;86;20202;-81
2021/07/31 12:51:03;;;;;;;;;;;;;;;27.77;34.63;99891.56;1637021;86;20164;-81
2021/07/31 12:53:31;;;;;;;;;;;;;;;27.77;34.68;99886.25;1636148;87;20153;-81
2021/07/31 12:55:57;;;;;;;;;;;;;;;27.78;34.67;99883.44;1638777;86;20790;-80